Key West, FL

13:40 EST le 23 novembre 2014 (GMT -0500)
Big Coppitt Key Gulfside | Change Station
CLOSE
Current Station
Stations météorologiques personnelles
Location: Key West, FL
Altitude: 31 ft
Stations météo à proximité

Alt. 31 ft 24.60 °N, 81.67 °W | Updated 13 minutes ago

Partiellement nuageux
Partiellement nuageux
85.8 ° F
Paraît 99 ° F
N
2.7
Vent Variable Vent de OSO

Aujourd'hui
Haut(e) -- | Bas -- ° F
--% Risque de précip.
Hier
Haut(e) -- | Bas -- ° F
Precip. -- pouce
6:48 AM 5:37 PM
Nouvelle lune, 2% visible
Pression 29.94 pouce
Visibilité 10.0 Miles terrestres
Nuages Peu 1800 ft
Nuages épars 2500 ft
indice de chaleur 99 ° F
Point de rosée 78 ° F
Humidité 79%
Précipitations 0.03 pouce
Profondeur de la couche neigeuse Non disponible.
UV 6 sur 12
Pollen 3.30 sur 12
Qualité de l'air Non disponible.
Flu Activity Non disponible.
METAR KNQX 231753Z 15011KT 10SM FEW018 SCT025 28/24 A2994 RMK AO2 SLP137 T02830244 10283 20244 58023 $

More Conditions Fewer Conditions

Pression 29.94 pouce
Visibilité 10.0 Miles terrestres
Nuages Peu 1800 ft
Nuages épars 2500 ft
indice de chaleur 99 ° F
Point de rosée 78 ° F
Humidité 79%
Précipitations 0.03 pouce
Profondeur de la couche neigeuse Non disponible.
UV 6 sur 12
Pollen 3.30 sur 12
Qualité de l'air Non disponible.
Flu Activity Non disponible.
METAR KNQX 231753Z 15011KT 10SM FEW018 SCT025 28/24 A2994 RMK AO2 SLP137 T02830244 10283 20244 58023 $

More Conditions Fewer Conditions

Nowcast | as of 12:19 PM EST on November 23, 2014

Through 130 PM...a line of light showers is moving to the northwest across the Lower Keys. Light to locally moderate rainfall with brief reduction in visibility is expected with these quick passing showers.

×

10-Day Weather Forecast

Almanac

Astronomie

Nov. 23, 2014 Lever Coucher
Temps réel
Crépuscule civil
Crépuscule nautique
Crépuscule astronomique
Lune
Durée de lumière visible
Longueur du jour
Tomorrow will be .
, % of the Moon is Illuminated

Extrêmes aujourd'hui

State Highs State Lows

Community

WunderPhotos

Upload Photos

1,773,127 Photos téléchargées !

WunderBlogs® & News

Nearby

Qualité de l'air

  Qualité de l'air Indice de la qualité de l'air Polluant
Not available.

Épaisseur de neige

Station Depth Altitude

Activité sismique

Ville Distance Mag. Time & Date
Minimum magnitude displayed is 2.5.

Températures des eaux côtières

Lieu Température

Stations météo à proximité